createdAt,value
2023-05-08T00:04:39.123Z,6.10
2023-05-08T00:09:40.491Z,6.05
2023-05-08T00:14:41.829Z,7.15
2023-05-08T00:19:43.152Z,6.63
2023-05-08T00:24:44.611Z,5.85
2023-05-08T00:29:45.914Z,6.15
2023-05-08T00:34:47.304Z,6.38
2023-05-08T00:39:48.603Z,7.40
2023-05-08T00:44:49.935Z,6.20
2023-05-08T00:49:51.302Z,5.20
2023-05-08T00:54:53.514Z,5.53
2023-05-08T00:59:55.603Z,6.10
2023-05-08T01:04:57.327Z,5.95
2023-05-08T01:09:58.714Z,6.65
2023-05-08T01:15:14.386Z,5.25
2023-05-08T01:20:43.711Z,6.78
2023-05-08T01:26:06.314Z,5.95
2023-05-08T01:31:29.236Z,6.10
2023-05-08T01:36:45.370Z,6.15
2023-05-08T01:41:58.864Z,6.22
2023-05-08T01:47:06.425Z,5.13
2023-05-08T01:52:14.688Z,5.32
2023-05-08T01:57:18.524Z,5.82
2023-05-08T02:02:20.914Z,4.85
2023-05-08T02:07:23.820Z,6.43
2023-05-08T02:12:26.790Z,6.60
2023-05-08T02:17:30.785Z,6.45
2023-05-08T02:22:33.576Z,5.78
2023-05-08T02:27:36.402Z,6.22
2023-05-08T02:32:39.257Z,5.97
2023-05-08T02:37:46.580Z,5.88
2023-05-08T02:42:48.830Z,6.43
2023-05-08T02:48:04.176Z,6.28
2023-05-08T02:53:11.194Z,6.53
2023-05-08T02:58:18.611Z,6.10
2023-05-08T03:03:25.097Z,6.30
2023-05-08T03:08:30.672Z,7.47
2023-05-08T03:13:35.845Z,5.93
2023-05-08T03:18:44.915Z,6.13
2023-05-08T03:23:48.353Z,6.43
2023-05-08T03:28:51.085Z,6.35
2023-05-08T03:33:54.429Z,6.15
2023-05-08T03:38:56.686Z,6.30
2023-05-08T03:43:58.897Z,6.65
2023-05-08T03:49:03.259Z,6.18
2023-05-08T03:54:04.682Z,6.70
2023-05-08T03:59:29.082Z,6.43
2023-05-08T04:09:57.989Z,6.35
2023-05-08T04:15:05.970Z,6.90
2023-05-08T04:20:12.161Z,6.72
2023-05-08T04:25:16.458Z,7.45
2023-05-08T04:30:18.185Z,7.85
2023-05-08T04:35:19.792Z,7.47
2023-05-08T04:40:21.167Z,7.82
2023-05-08T04:45:22.649Z,7.55
2023-05-08T04:50:24.170Z,6.82
2023-05-08T04:55:25.627Z,8.95
2023-05-08T05:00:27.169Z,7.00
2023-05-08T05:05:28.693Z,8.02
2023-05-08T05:10:30.114Z,7.65
2023-05-08T05:15:31.491Z,8.90
2023-05-08T05:20:32.817Z,7.03
2023-05-08T05:25:34.759Z,6.45
2023-05-08T05:30:36.211Z,6.53
2023-05-08T05:35:37.600Z,7.53
2023-05-08T05:40:38.964Z,8.25
2023-05-08T05:45:40.516Z,6.80
2023-05-08T05:50:41.810Z,7.68
2023-05-08T05:55:43.105Z,6.75
2023-05-08T06:00:44.704Z,7.00
2023-05-08T06:05:47.102Z,8.27
2023-05-08T06:10:48.518Z,7.07
2023-05-08T06:15:50.500Z,6.90
2023-05-08T06:20:57.407Z,7.90
2023-05-08T06:25:58.918Z,7.10
2023-05-08T06:31:00.275Z,7.20
2023-05-08T06:36:01.638Z,7.38
2023-05-08T06:41:02.935Z,8.07
2023-05-08T06:46:04.865Z,7.40
2023-05-08T06:51:06.699Z,8.75
2023-05-08T06:56:08.115Z,7.68
2023-05-08T07:01:09.432Z,7.13
2023-05-08T07:06:10.813Z,7.13
2023-05-08T07:11:12.444Z,7.70
2023-05-08T07:16:14.611Z,8.43
2023-05-08T07:21:17.955Z,7.45
2023-05-08T07:26:19.271Z,7.67
2023-05-08T07:31:21.369Z,8.10
2023-05-08T07:36:22.753Z,7.80
2023-05-08T07:41:24.316Z,8.30
2023-05-08T07:46:25.800Z,12.20
2023-05-08T07:51:27.603Z,7.03
2023-05-08T07:56:28.985Z,7.85
2023-05-08T08:01:30.301Z,7.70
2023-05-08T08:06:31.694Z,8.40
2023-05-08T08:11:33.195Z,7.75
2023-05-08T08:16:34.610Z,8.27
2023-05-08T08:21:36.183Z,9.23
2023-05-08T08:26:37.636Z,9.48
2023-05-08T08:31:39.123Z,7.25
2023-05-08T08:36:40.573Z,7.10
2023-05-08T08:41:42.003Z,8.00
2023-05-08T08:46:53.556Z,7.13
2023-05-08T08:52:17.912Z,6.65
2023-05-08T09:02:23.509Z,8.35
2023-05-08T09:07:25.932Z,9.50
2023-05-08T09:12:27.377Z,8.00
2023-05-08T09:17:28.904Z,7.45
2023-05-08T09:22:30.557Z,8.35
2023-05-08T09:27:32.379Z,7.35
2023-05-08T09:32:35.932Z,7.85
2023-05-08T09:37:42.920Z,7.75
2023-05-08T09:42:45.084Z,8.15
2023-05-08T09:47:49.578Z,8.13
2023-05-08T09:52:51.148Z,7.38
2023-05-08T09:57:58.021Z,8.20
2023-05-08T10:03:01.490Z,8.85
2023-05-08T10:08:22.524Z,8.82
2023-05-08T10:13:24.065Z,8.23
2023-05-08T10:18:30.021Z,7.45
2023-05-08T10:23:34.141Z,8.30
2023-05-08T10:28:49.697Z,8.60
2023-05-08T10:33:55.850Z,12.73
2023-05-08T10:38:58.696Z,7.78
2023-05-08T10:44:03.033Z,7.75
2023-05-08T10:49:14.834Z,7.95
2023-05-08T10:54:21.699Z,9.27
2023-05-08T10:59:23.728Z,7.07
2023-05-08T11:04:25.504Z,8.57
2023-05-08T11:09:28.972Z,7.35
2023-05-08T11:14:31.732Z,7.57
2023-05-08T11:19:33.309Z,9.13
2023-05-08T11:24:36.556Z,9.77
2023-05-08T11:29:38.821Z,8.37
2023-05-08T11:34:43.605Z,8.07
2023-05-08T11:39:45.910Z,7.78
2023-05-08T11:44:47.569Z,8.65
2023-05-08T11:49:49.044Z,10.27
2023-05-08T11:54:50.532Z,8.90
2023-05-08T11:59:52.041Z,9.35
2023-05-08T12:04:54.487Z,8.48
2023-05-08T12:09:55.911Z,8.75
2023-05-08T12:14:57.315Z,8.75
2023-05-08T12:20:16.700Z,8.05
2023-05-08T12:25:18.677Z,9.35
2023-05-08T12:30:20.255Z,9.55
2023-05-08T12:35:21.930Z,9.38
2023-05-08T12:40:29.822Z,7.75
2023-05-08T12:45:33.745Z,9.77
2023-05-08T12:50:37.388Z,8.88
2023-05-08T13:00:51.889Z,8.55
2023-05-08T13:05:57.995Z,8.45
2023-05-08T13:11:00.290Z,8.20
2023-05-08T13:16:04.425Z,9.45
2023-05-08T13:21:05.888Z,7.97
2023-05-08T13:26:07.168Z,8.52
2023-05-08T13:31:08.498Z,8.43
2023-05-08T13:36:09.887Z,7.38
2023-05-08T13:41:11.334Z,7.55
2023-05-08T13:46:12.764Z,7.65
2023-05-08T13:51:14.478Z,7.97
2023-05-08T13:56:15.832Z,7.13
2023-05-08T14:01:25.947Z,7.20
2023-05-08T14:06:28.072Z,8.70
2023-05-08T14:11:29.590Z,8.23
2023-05-08T14:16:31.164Z,8.05
2023-05-08T14:21:32.730Z,10.00
2023-05-08T14:26:34.119Z,7.78
2023-05-08T14:31:35.824Z,8.55
2023-05-08T14:36:37.235Z,11.55
2023-05-08T14:41:40.821Z,8.02
2023-05-08T14:51:43.711Z,6.95
2023-05-08T15:02:07.084Z,6.90
2023-05-08T15:07:08.391Z,7.80
2023-05-08T15:12:09.746Z,9.68
2023-05-08T15:17:11.126Z,6.88
2023-05-08T15:22:13.767Z,10.10
2023-05-08T15:27:15.286Z,6.10
2023-05-08T15:32:16.641Z,6.20
2023-05-08T15:37:18.027Z,28.27
2023-05-08T15:42:20.924Z,7.15
2023-05-08T15:47:23.174Z,6.33
2023-05-08T15:52:24.757Z,6.70
2023-05-08T15:57:27.001Z,7.22
2023-05-08T16:02:28.531Z,10.05
2023-05-08T16:07:30.006Z,7.30
2023-05-08T16:12:31.365Z,8.05
2023-05-08T16:17:33.109Z,7.25
2023-05-08T16:22:34.427Z,8.35
2023-05-08T16:27:36.809Z,8.35
2023-05-08T16:32:39.705Z,8.02
2023-05-08T16:37:41.173Z,7.37
2023-05-08T16:42:42.555Z,8.07
2023-05-08T16:47:43.896Z,7.13
2023-05-08T16:52:45.376Z,7.68
2023-05-08T16:57:46.684Z,7.97
2023-05-08T17:02:48.374Z,7.20
2023-05-08T17:07:50.052Z,7.55
2023-05-08T17:12:54.063Z,8.32
2023-05-08T17:17:55.923Z,8.27
2023-05-08T17:22:57.347Z,8.52
2023-05-08T17:28:00.664Z,9.10
2023-05-08T17:33:03.511Z,8.38
2023-05-08T17:38:04.834Z,8.60
2023-05-08T17:43:08.473Z,7.97
2023-05-08T17:48:09.867Z,9.48
2023-05-08T17:53:11.171Z,8.68
2023-05-08T17:58:12.476Z,8.15
2023-05-08T18:03:13.866Z,7.97
2023-05-08T18:08:15.289Z,9.43
2023-05-08T18:13:16.599Z,9.50
2023-05-08T18:18:17.924Z,10.02
2023-05-08T18:23:19.366Z,9.80
2023-05-08T18:28:20.856Z,9.60
2023-05-08T18:33:22.284Z,9.40
2023-05-08T18:38:23.837Z,8.90
2023-05-08T18:43:25.197Z,8.75
2023-05-08T18:48:27.129Z,8.43
2023-05-08T18:53:30.403Z,9.35
2023-05-08T18:58:31.733Z,8.65
2023-05-08T19:03:33.081Z,8.55
2023-05-08T19:08:34.405Z,9.73
2023-05-08T19:13:35.845Z,9.20
2023-05-08T19:18:37.142Z,9.48
2023-05-08T19:23:38.477Z,8.68
2023-05-08T19:28:39.718Z,8.48
2023-05-08T19:33:41.241Z,10.05
2023-05-08T19:38:42.559Z,10.77
2023-05-08T19:43:43.858Z,9.35
2023-05-08T19:48:45.209Z,10.27
2023-05-08T19:53:46.638Z,10.23
2023-05-08T19:58:47.927Z,10.68
2023-05-08T20:03:49.337Z,10.20
2023-05-08T20:08:50.807Z,10.40
2023-05-08T20:13:52.105Z,10.23
2023-05-08T20:18:53.834Z,10.45
2023-05-08T20:23:55.170Z,9.88
2023-05-08T20:28:57.255Z,11.35
2023-05-08T20:33:59.586Z,11.52
2023-05-08T20:39:01.086Z,11.68
2023-05-08T20:44:02.441Z,12.02
2023-05-08T20:49:04.282Z,12.18
2023-05-08T20:54:05.845Z,12.27
2023-05-08T20:59:07.399Z,13.10
2023-05-08T21:04:08.971Z,11.55
2023-05-08T21:09:10.690Z,11.75
2023-05-08T21:14:12.004Z,11.40
2023-05-08T21:19:17.422Z,12.55
2023-05-08T21:24:18.797Z,12.90
2023-05-08T21:29:20.214Z,13.43
2023-05-08T21:34:22.681Z,13.30
2023-05-08T21:39:24.009Z,11.38
2023-05-08T21:44:25.448Z,12.32
2023-05-08T21:49:26.758Z,12.30
2023-05-08T21:54:28.178Z,11.95
2023-05-08T21:59:29.468Z,12.40
2023-05-08T22:04:30.797Z,13.50
2023-05-08T22:09:32.183Z,13.57
2023-05-08T22:14:33.617Z,12.93
2023-05-08T22:19:35.033Z,13.23
2023-05-08T22:24:36.385Z,13.43
2023-05-08T22:29:37.709Z,13.27
2023-05-08T22:34:39.095Z,12.68
2023-05-08T22:39:40.483Z,12.85
2023-05-08T22:44:43.250Z,13.40
2023-05-08T22:49:45.075Z,13.30
2023-05-08T22:54:46.408Z,13.32
2023-05-08T22:59:47.705Z,12.82
2023-05-08T23:04:49.261Z,12.75
2023-05-08T23:09:50.727Z,13.32
2023-05-08T23:14:52.028Z,13.73
2023-05-08T23:19:53.398Z,13.98
2023-05-08T23:24:54.893Z,13.40
2023-05-08T23:29:56.525Z,13.52
2023-05-08T23:34:57.807Z,13.80
2023-05-08T23:39:59.198Z,14.35
2023-05-08T23:45:00.519Z,13.15
2023-05-08T23:50:02.058Z,13.48
2023-05-08T23:55:03.704Z,12.70
